x

Central Aleutians 230nm Sw Dutch Harbor (46072) Wave Buoy

11:50 - Thu 26th Feb 2015 All times are UTC.

  • Sig Wave height 13.4ft
  • Peak Period 11s
  • Average Period 7s
  • Wind
    25mph, 31mph gusts
  • Sea Temp 41°f
  • Luft Temp 40°f
  • Sea Pressure 1020.9mb

More Historic Weather Station data

Upgrade to MSW Pro to gain access to the past 30 days of data for over 8000 Wavebouys and Weather Stations around the globe.

Join Pro

Comparision Forecast

View Surf forecast
   
Do 02/26 11:50 13.5ft 11s 7s 25 31 mph 1020.9mb 41f 40f
10:50 15ft 12s 7s 27 31 mph 1021.7mb 42f 39f
9:50 14ft 12s 7s 25 31 mph 1022.6mb 42f 39f
8:50 14.5ft 12s 7s 27 34 mph 1022.8mb 42f 40f
7:50 14ft 11s 7s 27 38 mph 1023.2mb 42f 39f
6:50 14ft 13s 7s 27 31 mph 1023mb 42f 39f
5:50 14.5ft 12s 7s 25 31 mph 1023.3mb 42f 39f
4:50 15.5ft 12s 7s 27 31 mph 1023.3mb 42f 39f
3:50 15.5ft 10s 7s 27 34 mph 1023.8mb 42f 39f
2:50 13.5ft 12s 7s 27 36 mph 1024.1mb 42f 38f
1:50 14ft 11s 7s 27 31 mph 1024.7mb 42f 39f
12:50 14.5ft 12s 7s 29 34 mph 1025.1mb 42f 39f
11:50 14ft 11s 7s 29 38 mph 1025.8mb 42f 39f
10:50 14.5ft 12s 7s 29 36 mph 1026mb 42f 39f
9:50 14ft 12s 7s 27 36 mph 1026.2mb 42f 39f
8:50 12ft 10s 7s 27 34 mph 1026.5mb 42f 39f
7:50 12.5ft 11s 7s 25 29 mph 1026.8mb 42f 39f
6:50 12.5ft 11s 7s 27 31 mph 1026.8mb 42f 39f
5:50 12.5ft 10s 7s 25 29 mph 1026.7mb 42f 40f
4:50 12ft 10s 7s 22 27 mph 1026.9mb 41f 39f
3:50 12ft 10s 7s 22 29 mph 1027.2mb 41f 39f
2:50 12ft 9s 7s 22 29 mph 1027.7mb 41f 39f
1:50 11ft 9s 7s 22 27 mph 1028mb 42f 39f
12:50 11ft 8s 6s 22 27 mph 1028.2mb 41f 39f
Mi 02/25 11:50 9.5ft 9s 6s 22 27 mph 1028.5mb 42f 39f
10:50 9ft 8s 6s 20 25 mph 1029.2mb 42f 39f
9:50 8.5ft 9s 6s 22 25 mph 1029.4mb 42f 39f
8:50 8ft 9s 6s 18 22 mph 1029.8mb 41f 39f
7:50 8.5ft 9s 6s 20 25 mph 1029.9mb 42f 39f
6:50 8ft 9s 6s 20 25 mph 1029.6mb 42f 38f
5:50 7ft 9s 6s 20 25 mph 1029.2mb 41f 39f
4:50 7.5ft 9s 6s 20 25 mph 1029mb 41f 39f
3:50 7ft 9s 6s 20 27 mph 1028.4mb 41f 39f
2:50 6ft 9s 6s 18 22 mph 1028.5mb 41f 39f
1:50 6ft 9s 6s 16 20 mph 1028.9mb 41f 39f
12:50 6ft 8s 6s 16 20 mph 1029.2mb 41f 39f
11:50 7ft 9s 7s 13 20 mph 1029.3mb 42f 39f
10:50 6ft 8s 7s 11 16 mph 1029.6mb 42f 39f
9:50 6.5ft 8s 7s 13 16 mph 1029.5mb 42f 39f
8:50 6ft 9s 7s 11 18 mph 1029.6mb 42f 39f
7:50 6ft 8s 7s 13 18 mph 1029.1mb 42f 39f
6:50 6ft 9s 7s 9 13 mph 1028.5mb 42f 38f
5:50 5.5ft 9s 7s 7 9 mph 1028.6mb 42f 38f
4:50 5ft 9s 7s 7
mph
1028.3mb 42f 38f
3:50 5ft 9s 7s 7 9 mph 1027.7mb 41f 39f
2:50 5.5ft 9s 6s 4 7 mph 1027.4mb 41f 38f
1:50 6ft 9s 7s 2 4 mph 1027.1mb 41f 38f
12:50 6ft 8s 6s 7 9 mph 1027.1mb 42f 38f
Di 02/24 11:50 6ft 9s 6s 7 9 mph 1027.2mb 42f 38f
10:50 6ft 9s 7s 9 11 mph 1027.1mb 42f 38f
9:50 5.5ft 9s 6s 11 13 mph 1026.9mb 42f 38f
8:50 5.5ft 9s 7s 11 16 mph 1026.5mb 42f 38f
7:50 5.5ft 10s 6s 13 18 mph 1026mb 42f 38f
6:50 5ft 9s 6s 13 18 mph 1025.6mb 42f 38f
5:50 5ft 9s 6s 13 18 mph 1025.3mb 42f 38f
4:50 4.5ft 9s 6s 13 16 mph 1024.8mb 41f 38f
3:50 4.5ft 6s 5s 13 16 mph 1024.3mb 41f 37f
2:50 4.5ft 8s 5s 9
mph
1023.7mb 41f 37f
1:50 5.5ft 9s 6s 9 13 mph 1023.4mb 41f 37f
12:50 5.5ft 7s 6s 11 13 mph 1023.1mb 41f 37f
11:50 6ft 8s 7s 11 13 mph 1022.5mb 41f 37f
10:50 5.5ft 8s 7s 13 16 mph 1022.5mb 41f 35f
9:50 5ft 9s 7s 11 13 mph 1022.2mb 41f 36f
8:50 5ft 8s 7s 11 13 mph 1022mb 42f 36f
7:50 5ft 8s 7s 9 20 mph 1021.5mb 42f 37f
6:50 5ft 7s 7s  -  4 mph 1021mb 42f 35f
5:50 4ft 7s 7s 11 18 mph 1020.2mb 42f 37f
4:50 4.5ft 10s 7s 9 11 mph 1019.7mb 42f 37f
3:50 4.5ft 10s 7s 7 9 mph 1019.2mb 42f 38f
2:50 5ft 10s 6s 9 11 mph 1018.8mb 42f 38f
1:50 5.5ft 7s 6s 7 9 mph 1018.5mb 41f 38f
12:50 5.5ft 9s 6s 9 11 mph 1018.4mb 41f 38f
Mo 02/23 11:50 6ft 9s 6s 7 9 mph 1018.2mb 42f 37f
10:50 6ft 8s 6s 11 13 mph 1018.2mb 42f 37f
9:50 6ft 9s 7s 9 13 mph 1018mb 42f 37f
8:50 5ft 10s 7s 9 13 mph 1017.8mb 42f 37f
7:50 5ft 10s 7s 7 11 mph 1017.3mb 42f 37f
6:50 5ft 10s 7s 7 11 mph 1016.9mb 42f 37f
5:50 5.5ft 10s 7s 11 16 mph 1016.2mb 41f 37f
4:50 5ft 10s 7s 11 20 mph 1015.6mb 41f 37f
3:50 6ft 11s 8s 11 16 mph 1015.4mb 41f 37f
2:50 6ft 10s 6s 11 13 mph 1015.1mb 41f 37f
1:50 7ft 10s 7s 11 16 mph 1015.1mb 41f 37f
12:50 7ft 9s 7s 11 13 mph 1015mb 41f 37f
11:50 7.5ft 9s 7s 9 11 mph 1014.9mb 41f 37f
10:50 8.5ft 10s 8s 13 18 mph 1014.6mb 41f 37f
9:50 8ft 10s 8s 11 18 mph 1014.4mb 41f 37f
8:50 9.5ft 10s 9s 7 11 mph 1014mb 42f 37f
7:50 9ft 11s 8s 4 7 mph 1013.7mb 42f 37f
6:50 8.5ft 11s 9s 4 7 mph 1013.2mb 42f 37f
5:50 6.5ft 11s 7s 7 9 mph 1012.7mb 41f 37f
4:50 6.5ft 11s 7s 7 11 mph 1012mb 41f 37f
3:50 6ft 11s 6s 7 11 mph 1011.6mb 41f 37f
2:50 7ft 11s 6s 7 11 mph 1011mb 41f 37f
1:50 7ft 11s 6s 9 13 mph 1010.4mb 41f 36f